Carmarthen, United Kingdom
Current Conditions -  °F | °C
As of 12:50 PM on Tuesday 21 Oct 2014 (Local Time) from EGOP Reporting Station
Broken Clouds Broken Clouds  
Wind Chill: 55°   Ceiling: 5000
Heat Index: 55°   Visibility: 6mi
Dew Point: 43°   Wind: 38mph
Humidity: 63%   Direction: 300°WNW
Pressure: 29.88"   Gusts: 49mph
Location:  51.86°N, 4.31°W
Report Text: EGOP 211150Z 30033G43KT 9999 FEW039 BKN050 13/06 Q1012 BLU
Loading
Personal Weather Stations






























Interactive Weather Map
Tropical Storm Tracking
New forecast layout! Learn more

10-Day Weather Forecast

Advertisements
Track Severe Weather on mobile